createdAt,value
2022-09-27T00:02:18.676Z,96762.47
2022-09-27T00:05:27.314Z,96753.25
2022-09-27T00:08:32.952Z,96748.75
2022-09-27T00:11:42.889Z,96744.47
2022-09-27T00:14:48.392Z,96740.13
2022-09-27T00:17:54.066Z,96731.53
2022-09-27T00:21:09.716Z,96732.97
2022-09-27T00:24:17.937Z,96733.97
2022-09-27T00:27:23.641Z,96730.44
2022-09-27T00:30:29.510Z,96733.03
2022-09-27T00:33:35.124Z,96728.09
2022-09-27T00:36:43.302Z,96730.00
2022-09-27T00:39:49.018Z,96717.53
2022-09-27T00:42:54.469Z,96717.25
2022-09-27T00:46:07.062Z,96701.59
2022-09-27T00:49:24.958Z,96697.13
2022-09-27T00:52:49.078Z,96689.22
2022-09-27T00:56:03.241Z,96696.75
2022-09-27T00:59:17.430Z,96692.91
2022-09-27T01:02:23.380Z,96687.97
2022-09-27T01:05:32.345Z,96680.88
2022-09-27T01:08:40.558Z,96676.50
2022-09-27T01:11:54.742Z,96675.06
2022-09-27T01:15:21.032Z,96673.69
2022-09-27T01:18:41.341Z,96664.34
2022-09-27T01:22:07.040Z,96661.94
2022-09-27T01:25:51.319Z,96662.22
2022-09-27T01:29:12.775Z,96646.47
2022-09-27T01:32:37.388Z,96642.44
2022-09-27T01:36:05.543Z,96640.00
2022-09-27T01:39:36.724Z,96631.44
2022-09-27T01:43:19.808Z,96629.88
2022-09-27T01:46:34.759Z,96635.78
2022-09-27T01:50:12.924Z,96625.81
2022-09-27T01:53:26.900Z,96629.88
2022-09-27T01:56:54.821Z,96618.25
2022-09-27T02:00:10.703Z,96613.31
2022-09-27T02:03:29.293Z,96602.41
2022-09-27T02:07:09.260Z,96606.28
2022-09-27T02:10:24.351Z,96609.28
2022-09-27T02:13:47.776Z,96607.38
2022-09-27T02:17:33.403Z,96604.31
2022-09-27T02:20:47.950Z,96595.00
2022-09-27T02:24:04.167Z,96596.56
2022-09-27T02:27:20.031Z,96599.56
2022-09-27T02:30:26.093Z,96607.19
2022-09-27T02:33:49.148Z,96595.28
2022-09-27T02:36:56.471Z,96580.44
2022-09-27T02:40:05.281Z,96578.09
2022-09-27T02:43:11.185Z,96574.31
2022-09-27T02:46:55.909Z,96581.94
2022-09-27T02:50:27.263Z,96562.84
2022-09-27T02:54:15.083Z,96575.34
2022-09-27T02:58:04.440Z,96574.66
2022-09-27T03:02:08.568Z,96568.56
2022-09-27T03:05:34.047Z,96553.19
2022-09-27T03:08:41.478Z,96559.34
2022-09-27T03:11:47.101Z,96559.44
2022-09-27T03:14:56.349Z,96567.34
2022-09-27T03:18:22.052Z,96570.06
2022-09-27T03:21:46.409Z,96561.69
2022-09-27T03:24:52.895Z,96552.56
2022-09-27T03:27:58.481Z,96553.59
2022-09-27T03:31:09.298Z,96556.09
2022-09-27T03:34:46.791Z,96547.47
2022-09-27T03:37:52.335Z,96555.56
2022-09-27T03:40:59.349Z,96551.69
2022-09-27T03:44:05.303Z,96549.53
2022-09-27T03:47:13.978Z,96551.38
2022-09-27T03:50:20.780Z,96547.91
2022-09-27T03:53:26.513Z,96544.22
2022-09-27T03:56:32.212Z,96544.34
2022-09-27T03:59:38.447Z,96549.53
2022-09-27T04:03:29.418Z,96544.25
2022-09-27T04:07:11.550Z,96539.44
2022-09-27T04:10:21.930Z,96527.81
2022-09-27T04:13:34.613Z,96524.50
2022-09-27T04:16:40.343Z,96525.16
2022-09-27T04:20:04.885Z,96520.00
2022-09-27T04:23:12.789Z,96518.69
2022-09-27T04:26:28.782Z,96513.44
2022-09-27T04:29:46.145Z,96523.88
2022-09-27T04:33:17.740Z,96513.97
2022-09-27T04:36:43.873Z,96519.00
2022-09-27T04:39:55.443Z,96510.22
2022-09-27T04:43:01.003Z,96508.69
2022-09-27T04:46:06.803Z,96508.16
2022-09-27T04:49:12.540Z,96518.34
2022-09-27T04:52:21.134Z,96516.28
2022-09-27T04:55:28.769Z,96508.34
2022-09-27T04:58:34.685Z,96502.28
2022-09-27T05:01:47.154Z,96503.91
2022-09-27T05:05:13.803Z,96502.78
2022-09-27T05:08:25.503Z,96484.19
2022-09-27T05:11:58.457Z,96491.88
2022-09-27T05:15:22.698Z,96494.38
2022-09-27T05:18:58.032Z,96491.53
2022-09-27T05:22:22.378Z,96489.84
2022-09-27T05:25:31.732Z,96488.22
2022-09-27T05:28:44.247Z,96487.19
2022-09-27T05:31:50.185Z,96490.25
2022-09-27T05:34:57.974Z,96489.44
2022-09-27T05:38:04.973Z,96490.47
2022-09-27T05:41:16.856Z,96496.19
2022-09-27T05:44:26.266Z,96495.00
2022-09-27T05:47:37.942Z,96489.69
2022-09-27T05:50:46.017Z,96492.94
2022-09-27T05:53:51.829Z,96487.66
2022-09-27T05:57:11.720Z,96492.16
2022-09-27T06:00:26.200Z,96493.75
2022-09-27T06:03:32.079Z,96492.13
2022-09-27T06:06:59.263Z,96484.97
2022-09-27T06:10:10.326Z,96484.19
2022-09-27T06:13:20.211Z,96485.19
2022-09-27T06:16:25.868Z,96481.13
2022-09-27T06:19:33.444Z,96485.41
2022-09-27T06:22:39.517Z,96479.50
2022-09-27T06:25:45.828Z,96476.84
2022-09-27T06:29:13.207Z,96470.19
2022-09-27T06:32:26.255Z,96473.69
2022-09-27T06:35:39.407Z,96473.44
2022-09-27T06:38:46.945Z,96470.47
2022-09-27T06:42:06.126Z,96463.50
2022-09-27T06:45:32.892Z,96466.16
2022-09-27T06:49:07.803Z,96464.69
2022-09-27T06:52:14.406Z,96460.09
2022-09-27T06:55:20.742Z,96457.97
2022-09-27T06:58:38.731Z,96458.16
2022-09-27T07:02:19.107Z,96457.00
2022-09-27T07:05:45.175Z,96457.53
2022-09-27T07:09:06.926Z,96457.09
2022-09-27T07:12:14.523Z,96457.13
2022-09-27T07:15:22.310Z,96458.09
2022-09-27T07:18:33.939Z,96458.44
2022-09-27T07:21:39.906Z,96459.34
2022-09-27T07:24:50.258Z,96454.56
2022-09-27T07:27:57.577Z,96464.03
2022-09-27T07:31:05.343Z,96462.72
2022-09-27T07:34:14.020Z,96455.63
2022-09-27T07:37:19.603Z,96451.94
2022-09-27T07:40:26.830Z,96448.16
2022-09-27T07:43:32.756Z,96444.84
2022-09-27T07:46:53.613Z,96446.75
2022-09-27T07:50:13.282Z,96445.28
2022-09-27T07:53:24.489Z,96439.97
2022-09-27T07:56:37.223Z,96447.84
2022-09-27T07:59:45.531Z,96441.56
2022-09-27T08:02:53.789Z,96439.38
2022-09-27T08:06:07.335Z,96435.06
2022-09-27T08:09:13.007Z,96432.56
2022-09-27T08:12:21.773Z,96432.41
2022-09-27T08:15:29.112Z,96433.41
2022-09-27T08:18:35.427Z,96430.94
2022-09-27T08:22:03.675Z,96433.59
2022-09-27T08:25:22.687Z,96425.84
2022-09-27T08:28:42.333Z,96424.38
2022-09-27T08:32:08.867Z,96420.91
2022-09-27T08:35:15.861Z,96417.72
2022-09-27T08:38:23.988Z,96423.34
2022-09-27T08:41:41.802Z,96416.88
2022-09-27T08:45:09.188Z,96413.38
2022-09-27T08:48:21.851Z,96418.66
2022-09-27T08:51:35.523Z,96416.06
2022-09-27T08:54:44.272Z,96415.31
2022-09-27T08:57:59.427Z,96409.09
2022-09-27T09:01:09.964Z,96411.44
2022-09-27T09:04:31.435Z,96409.66
2022-09-27T09:08:11.423Z,96408.34
2022-09-27T09:11:49.855Z,96401.94
2022-09-27T09:15:19.356Z,96390.50
2022-09-27T09:18:55.983Z,96389.31
2022-09-27T09:22:45.108Z,96376.91
2022-09-27T09:26:04.810Z,96382.88
2022-09-27T09:29:47.164Z,96370.97
2022-09-27T09:33:24.086Z,96367.53
2022-09-27T09:36:38.085Z,96359.56
2022-09-27T09:39:55.165Z,96359.47
2022-09-27T09:43:11.817Z,96350.50
2022-09-27T09:46:31.778Z,96349.00
2022-09-27T09:49:51.321Z,96346.16
2022-09-27T09:53:09.035Z,96346.25
2022-09-27T09:56:27.351Z,96348.38
2022-09-27T09:59:50.155Z,96342.72
2022-09-27T10:03:03.740Z,96351.16
2022-09-27T10:06:14.055Z,96348.72
2022-09-27T10:09:27.653Z,96334.84
2022-09-27T10:12:56.168Z,96335.59
2022-09-27T10:16:18.221Z,96326.03
2022-09-27T10:19:34.536Z,96322.56
2022-09-27T10:22:54.678Z,96319.78
2022-09-27T10:26:23.488Z,96299.34
2022-09-27T10:29:37.883Z,96307.19
2022-09-27T10:32:45.779Z,96301.50
2022-09-27T10:36:32.009Z,96309.06
2022-09-27T10:39:41.585Z,96307.66
2022-09-27T10:42:50.004Z,96313.31
2022-09-27T10:46:17.818Z,96300.94
2022-09-27T10:49:39.547Z,96302.00
2022-09-27T10:53:07.800Z,96297.88
2022-09-27T10:56:27.965Z,96299.59
2022-09-27T10:59:45.934Z,96298.81
2022-09-27T11:02:59.487Z,96300.41
2022-09-27T11:06:32.348Z,96301.56
2022-09-27T11:09:55.582Z,96289.09
2022-09-27T11:13:14.687Z,96291.34
2022-09-27T11:16:41.703Z,96287.31
2022-09-27T11:20:25.275Z,96281.09
2022-09-27T11:24:04.324Z,96287.84
2022-09-27T11:27:34.586Z,96282.75
2022-09-27T11:31:04.093Z,96284.03
2022-09-27T11:35:05.661Z,96275.19
2022-09-27T11:38:51.572Z,96271.47
2022-09-27T11:42:27.187Z,96262.72
2022-09-27T11:50:07.634Z,96264.41
2022-09-27T11:53:37.189Z,96263.38
2022-09-27T11:57:03.072Z,96258.22
2022-09-27T12:00:24.849Z,96261.00
2022-09-27T12:04:38.601Z,96263.28
2022-09-27T12:08:00.778Z,96256.19
2022-09-27T12:11:24.333Z,96252.25
2022-09-27T12:14:42.840Z,96259.09
2022-09-27T12:18:02.103Z,96254.53
2022-09-27T12:21:13.943Z,96250.94
2022-09-27T12:24:26.098Z,96250.72
2022-09-27T12:27:49.515Z,96248.91
2022-09-27T12:31:31.781Z,96242.81
2022-09-27T12:34:52.536Z,96250.09
2022-09-27T12:38:09.023Z,96247.53
2022-09-27T12:41:24.063Z,96244.63
2022-09-27T12:44:50.521Z,96247.88
2022-09-27T12:48:14.206Z,96242.97
2022-09-27T12:51:26.977Z,96246.41
2022-09-27T12:55:18.627Z,96243.94
2022-09-27T12:59:13.737Z,96228.44
2022-09-27T13:03:14.630Z,96235.69
2022-09-27T13:07:17.612Z,96232.31
2022-09-27T13:10:49.324Z,96232.84
2022-09-27T13:14:30.420Z,96239.66
2022-09-27T13:17:58.538Z,96237.41
2022-09-27T13:22:00.290Z,96235.38
2022-09-27T13:25:56.056Z,96236.44
2022-09-27T13:29:44.307Z,96230.00
2022-09-27T13:33:50.356Z,96234.50
2022-09-27T13:37:43.251Z,96244.13
2022-09-27T13:40:57.103Z,96241.88
2022-09-27T13:44:23.782Z,96245.69
2022-09-27T13:47:47.291Z,96245.44
2022-09-27T13:51:11.842Z,96245.25
2022-09-27T13:54:55.882Z,96246.50
2022-09-27T13:58:46.750Z,96251.03
2022-09-27T14:02:24.778Z,96268.06
2022-09-27T14:05:42.528Z,96278.16
2022-09-27T14:08:56.648Z,96278.00
2022-09-27T14:12:34.337Z,96279.44
2022-09-27T14:15:55.480Z,96292.38
2022-09-27T14:19:03.350Z,96307.13
2022-09-27T14:22:17.853Z,96301.91
2022-09-27T14:25:50.325Z,96306.88
2022-09-27T14:29:04.477Z,96311.50
2022-09-27T14:32:17.449Z,96324.28
2022-09-27T14:35:43.451Z,96322.63
2022-09-27T14:38:50.156Z,96315.09
2022-09-27T14:42:32.628Z,96312.97
2022-09-27T14:45:43.574Z,96310.91
2022-09-27T14:48:51.076Z,96309.66
2022-09-27T14:51:59.795Z,96315.69
2022-09-27T14:55:12.054Z,96315.44
2022-09-27T14:58:35.945Z,96315.34
2022-09-27T15:01:56.459Z,96315.13
2022-09-27T15:05:02.379Z,96314.19
2022-09-27T15:08:10.072Z,96303.66
2022-09-27T15:11:16.232Z,96304.00
2022-09-27T15:14:25.673Z,96298.66
2022-09-27T15:17:46.333Z,96294.13
2022-09-27T15:20:57.771Z,96297.81
2022-09-27T15:24:07.677Z,96300.50
2022-09-27T15:27:21.873Z,96307.81
2022-09-27T15:30:32.236Z,96305.50
2022-09-27T15:33:40.791Z,96299.72
2022-09-27T15:37:01.242Z,96305.84
2022-09-27T15:41:09.759Z,96301.78
2022-09-27T15:44:46.279Z,96305.03
2022-09-27T15:47:53.602Z,96305.03
2022-09-27T15:51:03.385Z,96305.13
2022-09-27T15:54:08.925Z,96312.00
2022-09-27T15:57:16.101Z,96322.84
2022-09-27T16:00:23.961Z,96318.50
2022-09-27T16:03:30.652Z,96330.81
2022-09-27T16:06:39.163Z,96336.75
2022-09-27T16:09:45.385Z,96333.25
2022-09-27T16:12:51.202Z,96340.88
2022-09-27T16:15:57.254Z,96336.94
2022-09-27T16:19:02.774Z,96332.81
2022-09-27T16:22:12.329Z,96327.94
2022-09-27T16:25:18.191Z,96320.88
2022-09-27T16:28:24.511Z,96323.38
2022-09-27T16:31:30.579Z,96325.78
2022-09-27T16:34:36.319Z,96320.31
2022-09-27T16:37:45.527Z,96334.41
2022-09-27T16:40:51.294Z,96341.47
2022-09-27T16:43:57.265Z,96345.53
2022-09-27T16:47:02.983Z,96342.53
2022-09-27T16:50:23.056Z,96349.84
2022-09-27T16:53:31.519Z,96351.47
2022-09-27T16:56:37.945Z,96346.59
2022-09-27T16:59:47.530Z,96336.75
2022-09-27T17:02:54.102Z,96332.91
2022-09-27T17:06:04.599Z,96337.47
2022-09-27T17:09:14.173Z,96327.72
2022-09-27T17:12:19.894Z,96333.72
2022-09-27T17:15:26.249Z,96341.84
2022-09-27T17:18:38.954Z,96342.66
2022-09-27T17:21:57.234Z,96346.09
2022-09-27T17:25:12.820Z,96353.19
2022-09-27T17:28:18.529Z,96350.19
2022-09-27T17:31:25.805Z,96342.00
2022-09-27T17:34:32.568Z,96347.72
2022-09-27T17:37:38.418Z,96344.88
2022-09-27T17:40:50.487Z,96337.22
2022-09-27T17:43:59.417Z,96343.94
2022-09-27T17:47:17.551Z,96360.56
2022-09-27T17:50:35.510Z,96354.94
2022-09-27T17:53:41.145Z,96361.03
2022-09-27T17:56:51.028Z,96369.47
2022-09-27T17:59:58.089Z,96368.00
2022-09-27T18:03:03.766Z,96371.47
2022-09-27T18:06:11.709Z,96377.41
2022-09-27T18:09:20.102Z,96380.25
2022-09-27T18:12:32.366Z,96388.25
2022-09-27T18:15:39.432Z,96385.44
2022-09-27T18:18:49.410Z,96383.56
2022-09-27T18:21:57.588Z,96374.69
2022-09-27T18:25:04.268Z,96393.41
2022-09-27T18:28:13.902Z,96387.78
2022-09-27T18:31:25.830Z,96381.31
2022-09-27T18:34:31.962Z,96377.28
2022-09-27T18:37:39.408Z,96392.59
2022-09-27T18:40:56.060Z,96390.09
2022-09-27T18:44:09.406Z,96388.03
2022-09-27T18:47:20.017Z,96390.41
2022-09-27T18:50:39.656Z,96389.13
2022-09-27T18:53:45.901Z,96387.94
2022-09-27T18:56:56.578Z,96387.19
2022-09-27T19:00:05.669Z,96388.03
2022-09-27T19:03:18.517Z,96387.34
2022-09-27T19:06:26.697Z,96382.13
2022-09-27T19:09:32.413Z,96386.91
2022-09-27T19:12:38.136Z,96387.03
2022-09-27T19:15:47.578Z,96391.50
2022-09-27T19:18:56.428Z,96388.59
2022-09-27T19:22:02.518Z,96382.47
2022-09-27T19:25:11.094Z,96378.34
2022-09-27T19:28:16.807Z,96390.81
2022-09-27T19:31:29.805Z,96395.34
2022-09-27T19:34:35.613Z,96391.25
2022-09-27T19:37:41.244Z,96391.34
2022-09-27T19:40:47.026Z,96383.28
2022-09-27T19:43:55.489Z,96392.22
2022-09-27T19:47:03.688Z,96387.50
2022-09-27T19:50:11.164Z,96373.97
2022-09-27T19:53:16.886Z,96381.50
2022-09-27T19:56:24.076Z,96384.03
2022-09-27T19:59:30.166Z,96374.03
2022-09-27T20:02:38.351Z,96379.72
2022-09-27T20:05:43.966Z,96372.94
2022-09-27T20:08:51.381Z,96387.44
2022-09-27T20:12:21.431Z,96385.56
2022-09-27T20:15:27.209Z,96387.94
2022-09-27T20:18:35.457Z,96392.81
2022-09-27T20:21:41.385Z,96394.97
2022-09-27T20:24:46.968Z,96389.78
2022-09-27T20:27:52.510Z,96407.00
2022-09-27T20:31:06.590Z,96411.00
2022-09-27T20:34:18.012Z,96414.50
2022-09-27T20:37:23.592Z,96416.91
2022-09-27T20:40:29.207Z,96414.13
2022-09-27T20:43:35.072Z,96406.50
2022-09-27T20:46:43.622Z,96411.75
2022-09-27T20:49:51.757Z,96418.94
2022-09-27T20:52:57.363Z,96427.97
2022-09-27T20:56:05.511Z,96425.78
2022-09-27T20:59:18.602Z,96415.91
2022-09-27T21:02:24.731Z,96420.63
2022-09-27T21:05:32.959Z,96418.13
2022-09-27T21:08:39.093Z,96414.84
2022-09-27T21:11:44.743Z,96410.59
2022-09-27T21:14:50.287Z,96408.78
2022-09-27T21:17:57.363Z,96397.84
2022-09-27T21:21:09.673Z,96411.09
2022-09-27T21:24:15.599Z,96408.63
2022-09-27T21:27:21.098Z,96410.69
2022-09-27T21:30:27.914Z,96405.75
2022-09-27T21:33:34.071Z,96425.06
2022-09-27T21:36:42.442Z,96414.13
2022-09-27T21:39:50.423Z,96415.44
2022-09-27T21:42:57.846Z,96420.63
2022-09-27T21:46:09.643Z,96415.16
2022-09-27T21:49:15.327Z,96422.63
2022-09-27T21:52:23.412Z,96426.31
2022-09-27T21:55:29.089Z,96426.25
2022-09-27T21:58:37.732Z,96437.53
2022-09-27T22:01:46.026Z,96440.41
2022-09-27T22:04:51.845Z,96434.53
2022-09-27T22:08:00.017Z,96434.88
2022-09-27T22:11:11.323Z,96433.47
2022-09-27T22:14:18.359Z,96440.06
2022-09-27T22:17:23.917Z,96438.97
2022-09-27T22:20:29.501Z,96433.19
2022-09-27T22:23:39.137Z,96421.59
2022-09-27T22:26:49.611Z,96431.78
2022-09-27T22:29:55.215Z,96427.06
2022-09-27T22:33:01.135Z,96423.34
2022-09-27T22:36:13.372Z,96424.47
2022-09-27T22:39:23.485Z,96430.97
2022-09-27T22:42:29.000Z,96424.59
2022-09-27T22:45:34.643Z,96429.94
2022-09-27T22:48:40.595Z,96432.69
2022-09-27T22:51:50.637Z,96418.16
2022-09-27T22:54:58.777Z,96420.03
2022-09-27T22:58:04.415Z,96420.84
2022-09-27T23:01:16.763Z,96418.69
2022-09-27T23:04:22.619Z,96423.00
2022-09-27T23:07:29.128Z,96417.88
2022-09-27T23:10:38.037Z,96426.41
2022-09-27T23:13:51.130Z,96422.38
2022-09-27T23:16:59.683Z,96410.16
2022-09-27T23:20:05.914Z,96408.13
2022-09-27T23:23:16.785Z,96407.22
2022-09-27T23:26:27.169Z,96404.81
2022-09-27T23:29:39.545Z,96412.63
2022-09-27T23:32:47.698Z,96407.75
2022-09-27T23:35:53.271Z,96407.31
2022-09-27T23:39:04.078Z,96410.63
2022-09-27T23:42:13.526Z,96410.25
2022-09-27T23:45:19.552Z,96411.44
2022-09-27T23:48:25.154Z,96417.13
2022-09-27T23:51:30.681Z,96419.56
2022-09-27T23:54:36.263Z,96414.09
2022-09-27T23:57:44.521Z,96416.66
